Time;durP1;ratioP1;P1;durP2;ratioP2;P2;SDS_P1;SDS_P2;PMS_P1;PMS_P2;Temp;Humidity;BMP_temperature;BMP_pressure;BME280_temperature;BME280_humidity;BME280_pressure;Samples;Min_cycle;Max_cycle;Signal;HPM_P1;HPM_P2
2022/01/11 00:00:38;;;;;;;;;16.50;11.25;;;;;4.80;71.79;102296.16;4976399;28;45342;-51
2022/01/11 00:03:05;;;;;;;;;19.00;16.00;;;;;4.81;71.50;102303.31;4974199;28;45312;-46
2022/01/11 00:05:35;;;;;;;;;22.20;16.40;;;;;4.80;72.81;102300.75;4971319;28;45398;-49
2022/01/11 00:08:01;;;;;;;;;17.40;15.60;;;;;4.85;72.00;102303.91;4973305;28;45600;-48
2022/01/11 00:10:32;;;;;;;;;22.50;17.75;;;;;4.83;72.77;102297.75;4976336;28;45656;-49
2022/01/11 00:12:59;;;;;;;;;24.20;19.40;;;;;4.45;72.10;102243.03;4976782;28;45421;-48
2022/01/11 00:15:25;;;;;;;;;15.20;15.20;;;;;4.80;72.93;102289.88;4959666;28;45483;-48
2022/01/11 00:17:50;;;;;;;;;20.25;19.50;;;;;4.83;72.74;102297.75;4976997;28;45428;-50
2022/01/11 00:20:17;;;;;;;;;16.75;16.25;;;;;4.54;72.39;102269.41;4976315;28;46499;-47
2022/01/11 00:25:39;;;;;;;;;22.20;20.00;;;;;4.62;72.31;102298.66;4953275;28;45483;-48
2022/01/11 00:28:06;;;;;;;;;22.60;17.60;;;;;4.61;73.25;102308.66;4977407;28;45403;-48
2022/01/11 00:30:34;;;;;;;;;30.40;24.00;;;;;4.59;73.08;102294.34;4976510;28;46453;-49
2022/01/11 00:33:02;;;;;;;;;35.40;29.20;;;;;4.74;72.38;102307.56;4976439;28;45464;-51
2022/01/11 00:35:38;;;;;;;;;24.60;20.60;;;;;4.67;73.38;102300.97;4976195;28;45360;-50
2022/01/11 00:38:04;;;;;;;;;36.40;29.80;;;;;4.74;73.37;102294.84;4976598;28;45251;-49
2022/01/11 00:40:30;;;;;;;;;40.80;35.40;;;;;4.76;72.33;102300.16;4976487;28;46682;-49
2022/01/11 00:42:59;;;;;;;;;40.75;32.50;;;;;4.67;72.97;102290.94;4975928;28;45406;-49
2022/01/11 00:45:25;;;;;;;;;52.00;41.00;;;;;4.62;73.46;102279.59;4975037;28;45441;-49
2022/01/11 00:47:51;;;;;;;;;41.75;37.75;;;;;4.77;73.19;102295.56;4975149;28;45422;-49
2022/01/11 00:50:17;;;;;;;;;48.75;41.75;;;;;4.81;72.71;102302.47;4976046;28;45861;-49
2022/01/11 00:52:43;;;;;;;;;52.20;39.20;;;;;4.70;72.23;102296.09;4975725;28;45664;-48
2022/01/11 00:55:09;;;;;;;;;42.75;34.25;;;;;4.75;72.94;102303.84;4976527;28;45307;-52
2022/01/11 00:57:34;;;;;;;;;39.00;35.00;;;;;4.70;72.83;102307.00;4975925;28;45400;-48
2022/01/11 01:00:00;;;;;;;;;51.75;33.50;;;;;4.74;73.27;102297.56;4976949;28;45586;-46
2022/01/11 01:02:25;;;;;;;;;36.75;28.50;;;;;4.73;73.21;102311.31;4975821;28;45470;-51
2022/01/11 01:04:52;;;;;;;;;28.75;21.25;;;;;4.64;73.26;102303.97;4958557;28;45273;-50
2022/01/11 01:07:17;;;;;;;;;26.20;25.60;;;;;4.53;73.01;102286.72;4976580;28;45403;-48
2022/01/11 01:09:55;;;;;;;;;22.50;20.00;;;;;4.66;73.40;102305.56;4976053;28;45393;-52
2022/01/11 01:12:21;;;;;;;;;29.00;21.80;;;;;4.71;72.87;102308.72;4960392;28;45398;-52
2022/01/11 01:14:46;;;;;;;;;26.50;19.75;;;;;4.74;72.92;102310.31;4976336;28;45354;-49
2022/01/11 01:17:12;;;;;;;;;27.50;22.50;;;;;4.66;72.95;102307.41;4974913;28;45341;-49
2022/01/11 01:19:37;;;;;;;;;27.00;23.50;;;;;4.69;72.22;102327.03;4975364;28;46071;-49
2022/01/11 01:22:03;;;;;;;;;30.50;22.25;;;;;4.63;72.23;102330.28;4974498;28;45350;-50
2022/01/11 01:24:29;;;;;;;;;25.75;24.25;;;;;4.61;72.70;102332.28;4956258;28;45890;-48
2022/01/11 01:26:54;;;;;;;;;28.75;27.00;;;;;4.64;72.62;102331.16;4991701;28;45430;-48
2022/01/11 01:29:20;;;;;;;;;23.25;21.75;;;;;4.67;72.84;102329.03;4976723;28;46907;-49
2022/01/11 01:31:45;;;;;;;;;25.75;20.75;;;;;4.72;73.64;102315.91;4993804;28;45301;-48
2022/01/11 01:34:11;;;;;;;;;27.75;21.75;;;;;4.78;72.53;102322.66;4995299;28;45414;-51
2022/01/11 01:36:36;;;;;;;;;29.75;24.50;;;;;4.77;73.13;102311.88;4994173;28;45327;-48
2022/01/11 01:39:03;;;;;;;;;26.50;20.00;;;;;4.78;72.97;102324.50;4995036;28;45462;-48
2022/01/11 01:41:28;;;;;;;;;26.20;22.60;;;;;4.72;72.60;102318.63;4995387;28;45551;-47
2022/01/11 01:43:56;;;;;;;;;29.50;23.75;;;;;4.81;72.95;102332.41;4993772;28;45472;-52
2022/01/11 01:46:22;;;;;;;;;33.00;25.40;;;;;4.80;72.30;102333.41;4995598;28;45625;-48
2022/01/11 01:48:48;;;;;;;;;34.50;24.75;;;;;4.70;73.05;102330.63;4994737;28;45674;-52
2022/01/11 01:51:14;;;;;;;;;18.40;16.80;;;;;4.73;72.38;102331.22;4995306;28;45422;-48
2022/01/11 01:53:42;;;;;;;;;20.50;18.50;;;;;4.72;73.02;102334.94;4994975;28;45315;-49
2022/01/11 01:56:08;;;;;;;;;29.20;22.40;;;;;4.69;72.29;102337.91;4994166;28;45411;-49
2022/01/11 01:58:33;;;;;;;;;21.75;20.25;;;;;4.67;72.50;102347.19;4996321;28;46302;-48
2022/01/11 02:01:03;;;;;;;;;27.25;24.75;;;;;4.70;72.64;102352.38;4998942;28;45340;-48
2022/01/11 02:03:31;;;;;;;;;27.40;20.40;;;;;4.73;72.66;102344.81;4998152;28;45289;-49
2022/01/11 02:05:57;;;;;;;;;29.00;23.80;;;;;4.80;73.40;102349.72;4981454;28;45591;-47
2022/01/11 02:08:23;;;;;;;;;26.00;22.25;;;;;4.83;72.76;102349.44;4980659;28;48059;-53
2022/01/11 02:10:49;;;;;;;;;31.60;23.40;;;;;4.83;72.46;102354.88;4998218;28;45406;-53
2022/01/11 02:13:14;;;;;;;;;33.00;29.25;;;;;4.87;73.31;102362.63;4996999;28;45437;-51
2022/01/11 02:15:40;;;;;;;;;31.00;25.00;;;;;4.92;72.64;102356.81;4997820;28;45328;-48
2022/01/11 02:18:10;;;;;;;;;29.25;27.25;;;;;4.92;72.73;102359.53;4998096;28;46063;-50
2022/01/11 02:20:38;;;;;;;;;24.80;23.00;;;;;4.91;73.08;102355.06;4979138;28;45479;-52
2022/01/11 02:23:03;;;;;;;;;36.20;28.00;;;;;4.91;72.12;102351.50;4961185;28;45924;-48
2022/01/11 02:25:29;;;;;;;;;32.50;26.00;;;;;4.90;72.83;102356.06;4960687;28;45801;-48
2022/01/11 02:27:54;;;;;;;;;34.00;25.50;;;;;4.94;72.73;102353.94;4961059;28;47704;-48
2022/01/11 02:30:20;;;;;;;;;31.75;25.00;;;;;4.90;71.95;102355.22;4978680;28;45375;-49
2022/01/11 02:32:50;;;;;;;;;38.25;24.25;;;;;4.86;72.49;102352.75;4978724;28;45371;-49
2022/01/11 02:35:16;;;;;;;;;33.80;25.20;;;;;4.56;72.65;102307.34;4976858;28;45570;-48
2022/01/11 02:37:42;;;;;;;;;36.00;27.00;;;;;4.71;71.81;102337.78;4978204;28;45577;-47
2022/01/11 02:40:08;;;;;;;;;27.60;22.60;;;;;4.90;72.19;102372.41;4960610;28;45403;-48
2022/01/11 02:42:34;;;;;;;;;29.00;23.50;;;;;4.72;71.74;102348.53;4960673;28;45415;-49
2022/01/11 02:44:59;;;;;;;;;28.00;27.75;;;;;4.90;72.34;102371.56;4978859;28;45473;-49
2022/01/11 02:47:25;;;;;;;;;39.25;31.75;;;;;4.80;72.48;102355.16;4978209;28;46283;-53
2022/01/11 02:49:50;;;;;;;;;26.25;24.00;;;;;4.87;72.30;102364.50;4978326;28;45417;-50
2022/01/11 02:52:16;;;;;;;;;33.50;29.00;;;;;4.74;72.80;102346.53;4978643;28;45625;-50
2022/01/11 02:54:42;;;;;;;;;30.00;25.75;;;;;4.84;71.58;102362.91;4978693;28;45303;-46
2022/01/11 02:57:07;;;;;;;;;33.25;26.50;;;;;4.82;71.83;102359.47;4977945;28;45229;-48
2022/01/11 02:59:33;;;;;;;;;24.75;23.75;;;;;4.80;72.41;102355.16;4977307;28;45340;-49
2022/01/11 03:01:58;;;;;;;;;34.25;29.75;;;;;4.79;72.32;102362.47;4977964;28;45785;-49
2022/01/11 03:04:28;;;;;;;;;27.50;26.25;;;;;4.79;71.81;102361.63;4978114;28;45312;-49
2022/01/11 03:06:54;;;;;;;;;34.00;28.80;;;;;4.80;72.51;102374.22;4972824;28;46280;-48
2022/01/11 03:09:20;;;;;;;;;29.50;23.00;;;;;4.67;71.63;102361.66;4996545;28;45419;-49
2022/01/11 03:11:47;;;;;;;;;31.40;22.60;;;;;4.73;72.36;102374.75;4995980;28;45427;-49
2022/01/11 03:14:12;;;;;;;;;31.00;25.60;;;;;4.71;72.14;102371.28;4996205;28;45426;-47
2022/01/11 03:16:38;;;;;;;;;26.75;23.75;;;;;4.71;71.78;102374.00;4996127;28;46125;-48
2022/01/11 03:19:03;;;;;;;;;28.75;25.00;;;;;4.69;72.19;102373.28;4973671;28;45260;-47
2022/01/11 03:21:30;;;;;;;;;36.75;34.50;;;;;4.48;71.89;102338.78;4968748;28;45362;-49
2022/01/11 03:23:57;;;;;;;;;34.60;26.80;;;;;4.70;71.45;102380.44;4977232;28;45348;-47
2022/01/11 03:26:23;;;;;;;;;29.00;25.00;;;;;4.64;71.79;102371.97;4977068;28;46098;-52
2022/01/11 03:28:48;;;;;;;;;30.00;27.50;;;;;4.71;71.65;102378.59;4959401;28;45510;-48
2022/01/11 03:31:14;;;;;;;;;19.50;17.75;;;;;4.33;71.17;102319.22;4977539;28;45391;-47
2022/01/11 03:33:39;;;;;;;;;40.25;27.50;;;;;4.52;71.54;102390.16;4977436;28;45566;-47
2022/01/11 03:36:05;;;;;;;;;24.50;20.00;;;;;4.40;71.53;102397.53;4976551;28;46135;-50
2022/01/11 03:38:31;;;;;;;;;31.25;20.25;;;;;4.41;71.45;102396.53;4976985;28;45365;-49
2022/01/11 03:40:57;;;;;;;;;21.00;19.80;;;;;4.33;72.48;102402.63;4959466;28;45503;-47
2022/01/11 03:43:24;;;;;;;;;29.75;19.25;;;;;4.32;71.83;102390.03;4977320;28;45534;-48
2022/01/11 03:45:50;;;;;;;;;29.00;22.60;;;;;4.32;72.36;102385.44;4976826;28;46165;-49
2022/01/11 03:48:15;;;;;;;;;30.50;22.25;;;;;4.31;72.30;102377.41;4977140;28;45772;-46
2022/01/11 03:50:42;;;;;;;;;29.50;22.00;;;;;4.38;72.49;102391.38;4959467;28;45319;-47
2022/01/11 03:53:15;;;;;;;;;21.80;19.60;;;;;4.40;71.82;102403.84;4959521;28;45357;-53
2022/01/11 03:55:57;;;;;;;;;29.60;20.60;;;;;4.38;72.44;102394.09;4977202;28;46154;-47
2022/01/11 03:58:26;;;;;;;;;24.60;19.80;;;;;4.43;71.75;102400.84;4961549;28;45378;-49
2022/01/11 04:00:52;;;;;;;;;22.40;20.40;;;;;4.46;71.86;102416.91;4959538;28;45432;-47
2022/01/11 04:03:17;;;;;;;;;25.80;18.80;;;;;4.47;71.61;102415.91;4977194;28;45568;-48
2022/01/11 04:05:44;;;;;;;;;23.00;19.50;;;;;4.45;71.58;102395.28;4959420;28;45464;-51
2022/01/11 04:08:10;;;;;;;;;21.40;19.20;;;;;4.22;71.43;102359.19;4976280;28;45400;-47
2022/01/11 04:10:35;;;;;;;;;22.75;17.50;;;;;4.28;71.98;102372.25;4959778;28;45306;-48
2022/01/11 04:13:01;;;;;;;;;22.00;21.25;;;;;4.41;71.54;102394.69;4959489;28;45610;-52
2022/01/11 04:15:27;;;;;;;;;22.50;15.50;;;;;3.83;72.00;102291.78;4976570;28;46026;-49
2022/01/11 04:17:52;;;;;;;;;31.75;23.00;;;;;4.43;71.73;102389.97;4976906;28;45434;-48
2022/01/11 04:20:19;;;;;;;;;27.50;22.00;;;;;4.47;71.81;102393.28;4958728;28;45328;-50
2022/01/11 04:22:46;;;;;;;;;28.40;22.20;;;;;4.48;71.90;102395.00;4976881;28;45495;-49
2022/01/11 04:25:12;;;;;;;;;28.00;21.80;;;;;4.49;72.06;102385.88;4976352;28;46142;-49
2022/01/11 04:27:37;;;;;;;;;28.00;23.25;;;;;4.52;71.67;102382.88;4977094;28;45582;-48
2022/01/11 04:30:03;;;;;;;;;29.25;23.50;;;;;4.02;71.72;102301.94;4976532;28;45497;-46
2022/01/11 04:32:30;;;;;;;;;30.00;24.60;;;;;4.51;71.52;102407.50;4976830;28;45302;-50
2022/01/11 04:34:56;;;;;;;;;24.80;22.20;;;;;4.17;71.81;102359.56;4977041;28;46287;-50
2022/01/11 04:37:21;;;;;;;;;31.25;24.50;;;;;4.41;71.81;102396.53;4978322;28;45422;-49
2022/01/11 04:39:47;;;;;;;;;26.50;25.25;;;;;4.50;72.22;102403.03;4976510;28;45336;-49
2022/01/11 04:42:12;;;;;;;;;32.00;21.75;;;;;4.44;71.24;102399.84;4959328;28;45342;-50
2022/01/11 04:44:38;;;;;;;;;32.00;23.25;;;;;4.43;71.13;102392.69;4976405;28;46173;-47
2022/01/11 04:47:04;;;;;;;;;33.25;24.25;;;;;4.38;71.36;102388.66;4976894;28;45254;-50
2022/01/11 04:49:29;;;;;;;;;25.50;21.00;;;;;4.28;71.13;102372.25;4976216;28;45305;-49
2022/01/11 04:51:55;;;;;;;;;29.50;25.50;;;;;4.34;71.05;102398.91;4976863;28;45273;-48
2022/01/11 04:54:20;;;;;;;;;27.25;24.00;;;;;4.31;70.89;102412.75;4976278;28;46130;-50
2022/01/11 04:56:46;;;;;;;;;30.00;28.25;;;;;4.28;70.88;102405.72;4975068;28;45359;-47
2022/01/11 04:59:11;;;;;;;;;20.75;18.75;;;;;4.30;71.44;102414.63;4976129;28;45311;-50
2022/01/11 05:01:37;;;;;;;;;36.75;29.00;;;;;4.29;71.58;102404.75;4975599;28;45534;-50
2022/01/11 05:04:03;;;;;;;;;24.00;21.50;;;;;4.35;71.31;102414.22;4974882;28;45511;-48
2022/01/11 05:06:28;;;;;;;;;32.50;26.00;;;;;4.38;70.98;102427.56;4957711;28;45587;-48
2022/01/11 05:08:54;;;;;;;;;29.75;25.50;;;;;4.41;70.97;102431.88;4976411;28;45444;-51
2022/01/11 05:11:21;;;;;;;;;29.00;25.00;;;;;4.43;70.76;102436.19;4976265;28;45547;-47
2022/01/11 05:13:46;;;;;;;;;30.40;28.20;;;;;4.42;70.90;102429.03;4975688;28;45779;-52
2022/01/11 05:16:12;;;;;;;;;35.25;23.75;;;;;4.44;70.86;102428.91;4975064;28;45432;-48
2022/01/11 05:18:37;;;;;;;;;29.00;25.00;;;;;4.13;70.25;102409.75;4975679;28;45430;-50
2022/01/11 05:21:03;;;;;;;;;30.00;22.75;;;;;4.29;70.80;102429.22;4976141;28;45646;-51
2022/01/11 05:23:29;;;;;;;;;29.20;25.20;;;;;4.25;70.69;102416.88;4975157;28;46445;-49
2022/01/11 05:25:55;;;;;;;;;32.25;27.25;;;;;4.19;70.75;102422.81;4975686;28;45403;-48
2022/01/11 05:28:20;;;;;;;;;31.25;27.75;;;;;3.80;69.71;102379.81;4958688;28;45329;-48
2022/01/11 05:30:46;;;;;;;;;31.50;31.50;;;;;4.03;71.32;102424.09;4975592;28;45478;-51
2022/01/11 05:33:11;;;;;;;;;35.00;28.00;;;;;4.00;71.36;102437.09;4957407;28;45364;-49
2022/01/11 05:35:37;;;;;;;;;33.00;28.25;;;;;3.85;71.70;102404.72;4957757;28;45393;-47
2022/01/11 05:38:02;;;;;;;;;35.00;29.25;;;;;4.11;70.99;102447.06;4975763;28;45491;-51
2022/01/11 05:40:28;;;;;;;;;36.75;34.25;;;;;4.09;71.23;102439.03;4959309;28;46005;-47
2022/01/11 05:42:54;;;;;;;;;31.00;26.50;;;;;4.13;71.08;102437.78;4982939;28;46169;-50
2022/01/11 05:45:20;;;;;;;;;35.50;31.00;;;;;3.66;71.35;102362.81;4995093;28;45547;-50
2022/01/11 05:47:47;;;;;;;;;38.00;27.75;;;;;4.17;71.68;102447.41;4977391;28;45463;-51
2022/01/11 05:50:13;;;;;;;;;36.20;29.20;;;;;3.92;71.82;102399.66;4994440;28;45499;-49
2022/01/11 05:52:39;;;;;;;;;36.75;31.00;;;;;4.17;70.54;102452.84;4976679;28;47243;-50
2022/01/11 05:55:06;;;;;;;;;36.50;31.50;;;;;4.20;71.83;102458.03;4994773;28;45221;-50
2022/01/11 05:57:31;;;;;;;;;38.40;29.40;;;;;4.17;70.21;102458.25;4995638;28;45320;-48
2022/01/11 05:59:57;;;;;;;;;30.50;24.25;;;;;4.09;70.39;102454.44;4994907;28;45600;-49
2022/01/11 06:02:22;;;;;;;;;35.50;26.50;;;;;4.05;70.88;102451.13;4995197;28;45559;-49
2022/01/11 06:04:50;;;;;;;;;31.75;28.50;;;;;4.02;70.70;102467.69;4993335;28;45602;-53
2022/01/11 06:07:16;;;;;;;;;36.20;27.80;;;;;3.97;70.34;102473.53;4993730;28;45344;-49
2022/01/11 06:09:41;;;;;;;;;31.75;27.50;;;;;3.92;70.30;102468.47;4994822;28;45556;-50
2022/01/11 06:12:07;;;;;;;;;39.00;28.50;;;;;3.97;70.72;102483.50;4994808;28;45541;-48
2022/01/11 06:14:33;;;;;;;;;33.40;29.00;;;;;3.97;71.30;102487.09;4994641;28;45438;-49
2022/01/11 06:16:59;;;;;;;;;36.50;28.50;;;;;4.01;70.93;102490.44;4994679;28;45320;-49
2022/01/11 06:19:26;;;;;;;;;29.00;26.50;;;;;3.95;70.16;102488.22;4988921;28;45260;-51
2022/01/11 06:21:51;;;;;;;;;29.80;29.00;;;;;3.96;70.29;102492.66;4974807;28;46576;-48
2022/01/11 06:24:17;;;;;;;;;34.50;32.50;;;;;4.00;70.34;102497.72;4975396;28;45274;-55
2022/01/11 06:26:42;;;;;;;;;34.50;29.25;;;;;3.78;69.81;102474.13;4977223;28;45334;-49
2022/01/11 06:29:08;;;;;;;;;39.25;35.25;;;;;3.90;69.95;102504.91;4975258;28;45415;-51
2022/01/11 06:31:35;;;;;;;;;38.75;32.50;;;;;3.85;70.62;102501.69;4975056;28;46509;-50
2022/01/11 06:34:01;;;;;;;;;35.80;32.00;;;;;3.91;70.28;102498.47;4975107;28;45342;-50
2022/01/11 06:36:26;;;;;;;;;37.80;25.80;;;;;3.96;70.21;102504.41;4974936;28;45412;-47
2022/01/11 06:38:52;;;;;;;;;32.00;27.25;;;;;3.81;69.42;102482.06;4975050;28;45367;-46
2022/01/11 06:41:17;;;;;;;;;40.25;30.75;;;;;3.93;70.19;102505.50;4975312;28;45891;-49
2022/01/11 06:43:43;;;;;;;;;27.25;21.75;;;;;3.93;69.80;102491.94;4953285;28;45361;-50
2022/01/11 06:46:09;;;;;;;;;34.50;28.75;;;;;3.93;69.98;102494.66;4995941;28;45439;-47
2022/01/11 06:48:34;;;;;;;;;37.00;31.00;;;;;3.93;69.90;102500.06;4994463;28;45413;-52
2022/01/11 06:51:00;;;;;;;;;37.75;33.50;;;;;3.95;70.23;102505.38;4979601;28;48487;-48
2022/01/11 06:53:25;;;;;;;;;39.50;30.75;;;;;3.87;70.11;102497.84;4977089;28;45468;-48
2022/01/11 06:55:53;;;;;;;;;27.25;23.75;;;;;3.93;70.95;102516.38;4996496;28;45214;-50
2022/01/11 06:58:18;;;;;;;;;35.40;29.20;;;;;3.89;70.36;102509.44;4996121;28;45398;-53
2022/01/11 07:00:44;;;;;;;;;34.00;30.25;;;;;3.91;70.36;102503.91;4997220;28;45391;-49
2022/01/11 07:03:10;;;;;;;;;36.75;31.75;;;;;3.79;70.12;102505.78;4997313;28;45422;-47
2022/01/11 07:05:35;;;;;;;;;42.25;32.25;;;;;3.56;69.97;102489.44;4997638;28;45378;-49
2022/01/11 07:08:01;;;;;;;;;8.25;4.25;;;;;3.69;70.61;102511.06;4996193;28;45603;-49
2022/01/11 07:10:26;;;;;;;;;35.75;31.50;;;;;3.73;70.49;102511.69;4997171;28;46458;-48
2022/01/11 07:12:52;;;;;;;;;30.25;28.50;;;;;3.72;70.54;102516.25;4997472;28;45390;-48
2022/01/11 07:15:17;;;;;;;;;41.00;35.75;;;;;3.72;70.55;102516.25;4997324;28;45427;-50
2022/01/11 07:17:43;;;;;;;;;32.50;26.75;;;;;3.69;70.79;102530.09;4997873;28;45696;-48
2022/01/11 07:20:09;;;;;;;;;46.00;33.50;;;;;3.71;70.27;102536.25;4967930;28;45817;-49
2022/01/11 07:22:40;;;;;;;;;34.75;27.50;;;;;3.66;70.54;102522.16;4977993;28;45462;-48
2022/01/11 07:25:07;;;;;;;;;38.60;32.60;;;;;3.62;69.54;102531.53;4959684;28;45841;-50
2022/01/11 07:27:33;;;;;;;;;43.40;34.20;;;;;3.50;70.04;102523.41;4976557;28;45425;-49
2022/01/11 07:30:03;;;;;;;;;31.60;25.60;;;;;3.46;69.63;102534.63;4977660;28;46317;-48
2022/01/11 07:32:31;;;;;;;;;44.40;35.40;;;;;3.44;70.64;102536.56;4943962;28;45456;-49
2022/01/11 07:34:57;;;;;;;;;37.80;32.40;;;;;3.45;71.05;102549.16;4977821;28;45379;-48
2022/01/11 07:37:26;;;;;;;;;35.60;30.20;;;;;3.47;70.21;102555.34;4977095;28;45456;-49
2022/01/11 07:39:52;;;;;;;;;41.40;35.60;;;;;3.43;69.83;102570.13;4975561;28;46530;-47
2022/01/11 07:42:17;;;;;;;;;50.50;38.00;;;;;3.36;70.21;102573.34;4976748;28;45351;-50
2022/01/11 07:44:45;;;;;;;;;40.25;33.25;;;;;3.31;70.33;102563.81;4931290;28;45715;-49
2022/01/11 07:47:10;;;;;;;;;29.60;23.00;;;;;3.36;69.92;102570.63;4955772;28;45368;-50
2022/01/11 07:49:36;;;;;;;;;38.25;31.25;;;;;3.21;70.57;102558.25;4975484;28;46870;-48
2022/01/11 07:52:02;;;;;;;;;48.50;39.75;;;;;2.48;70.45;102439.88;4975644;28;45449;-50
2022/01/11 07:54:28;;;;;;;;;37.25;35.50;;;;;3.34;71.53;102572.59;4977068;28;45393;-51
2022/01/11 07:56:54;;;;;;;;;35.00;26.00;;;;;3.38;71.15;102573.22;4942986;28;45547;-47
2022/01/11 07:59:19;;;;;;;;;48.00;35.25;;;;;3.38;71.21;102581.38;4959381;28;45385;-50
2022/01/11 08:01:45;;;;;;;;;41.00;37.25;;;;;3.35;70.97;102571.59;4976459;28;45462;-52
2022/01/11 08:04:10;;;;;;;;;45.25;34.25;;;;;3.25;71.08;102565.16;4959682;28;45287;-48
2022/01/11 08:06:36;;;;;;;;;38.00;38.00;;;;;3.16;70.90;102542.31;4977268;28;45308;-50
2022/01/11 08:09:01;;;;;;;;;35.25;31.25;;;;;3.25;71.37;102557.88;4976692;28;45359;-48
2022/01/11 08:11:27;;;;;;;;;38.50;36.00;;;;;3.44;70.72;102574.59;4958817;28;45270;-46
2022/01/11 08:13:53;;;;;;;;;44.25;36.00;;;;;3.33;71.18;102567.28;4975336;28;45422;-51
2022/01/11 08:16:18;;;;;;;;;46.50;38.25;;;;;3.44;70.99;102585.44;4955121;28;45632;-52
2022/01/11 08:18:44;;;;;;;;;44.75;35.75;;;;;3.43;70.91;102590.03;4927101;28;47419;-48
2022/01/11 08:21:09;;;;;;;;;36.75;33.00;;;;;3.45;70.98;102576.31;4966315;28;45522;-49
2022/01/11 08:23:35;;;;;;;;;38.75;31.75;;;;;3.46;70.96;102578.91;4975456;28;45507;-50
2022/01/11 08:26:00;;;;;;;;;40.50;34.00;;;;;3.57;71.25;102607.94;4976727;28;45551;-48
2022/01/11 08:28:26;;;;;;;;;43.75;36.50;;;;;3.61;70.63;102614.88;4958984;28;48157;-50
2022/01/11 08:30:52;;;;;;;;;51.25;37.50;;;;;3.39;70.14;102583.09;4959117;28;45924;-54
2022/01/11 08:33:18;;;;;;;;;39.40;35.20;;;;;3.51;70.83;102614.72;4976557;28;45917;-51
2022/01/11 08:35:43;;;;;;;;;36.00;33.25;;;;;3.31;70.33;102580.13;4976408;28;45374;-51
2022/01/11 08:38:09;;;;;;;;;35.75;33.00;;;;;3.59;70.46;102622.28;4976677;28;45693;-49
2022/01/11 08:40:34;;;;;;;;;48.50;38.75;;;;;3.60;70.14;102621.28;4976418;28;45375;-53
2022/01/11 08:43:03;;;;;;;;;43.50;37.50;;;;;3.53;70.25;102612.75;4954444;28;45324;-46
2022/01/11 08:45:28;;;;;;;;;41.20;39.40;;;;;3.46;70.33;102607.94;4989712;28;45657;-46
2022/01/11 08:47:54;;;;;;;;;45.75;38.50;;;;;3.52;70.29;102619.16;4990737;28;46709;-51
2022/01/11 08:50:20;;;;;;;;;53.00;35.75;;;;;3.31;70.61;102585.53;4977989;28;45502;-48
2022/01/11 08:52:46;;;;;;;;;49.50;33.75;;;;;3.51;70.18;102614.72;4995131;28;45406;-48
2022/01/11 08:55:12;;;;;;;;;42.25;36.00;;;;;3.36;70.64;102584.19;4996257;28;45509;-52
2022/01/11 08:57:38;;;;;;;;;51.25;43.50;;;;;3.56;70.78;102617.06;4945992;28;45499;-55
2022/01/11 09:00:06;;;;;;;;;50.50;41.50;;;;;3.42;71.01;102584.72;4975171;28;45410;-46
2022/01/11 09:02:35;;;;;;;;;38.00;30.80;;;;;3.39;70.28;102578.53;4975561;28;45374;-47
2022/01/11 09:05:01;;;;;;;;;49.75;42.25;;;;;3.61;70.66;102617.59;4974684;28;45466;-46
2022/01/11 09:07:26;;;;;;;;;42.20;35.00;;;;;3.64;71.16;102622.75;4974871;28;45391;-47
2022/01/11 09:09:52;;;;;;;;;44.75;35.75;;;;;3.69;70.87;102629.69;4975515;28;45433;-46
2022/01/11 09:12:19;;;;;;;;;57.00;41.25;;;;;3.64;69.88;102627.34;4975841;28;45884;-48
2022/01/11 09:14:45;;;;;;;;;45.20;36.20;;;;;3.59;69.96;102630.44;4975986;28;45308;-46
2022/01/11 09:17:11;;;;;;;;;41.00;36.20;;;;;3.45;70.48;102609.75;4974048;28;45455;-48
2022/01/11 09:19:37;;;;;;;;;42.75;34.50;;;;;3.47;70.31;102623.22;4975219;28;45344;-51
2022/01/11 09:22:03;;;;;;;;;36.50;33.50;;;;;2.87;70.03;102496.59;4969898;28;45451;-49
2022/01/11 09:24:31;;;;;;;;;50.50;40.00;;;;;3.73;70.53;102636.63;4974125;28;45694;-47
2022/01/11 09:27:01;;;;;;;;;39.80;30.40;;;;;3.62;69.85;102624.75;4973696;28;45882;-46
2022/01/11 09:29:27;;;;;;;;;43.40;38.20;;;;;3.65;69.41;102629.94;4952812;28;45349;-48
2022/01/11 09:31:55;;;;;;;;;47.25;35.75;;;;;3.42;70.46;102595.56;4935887;28;45531;-53
2022/01/11 09:34:22;;;;;;;;;58.40;40.20;;;;;3.63;69.77;102640.03;4952610;28;45774;-50
2022/01/11 09:36:47;;;;;;;;;55.75;43.25;;;;;3.69;70.28;102641.44;4969041;28;46595;-50
2022/01/11 09:39:14;;;;;;;;;49.00;38.00;;;;;3.68;70.00;102647.84;4969087;28;45513;-49
2022/01/11 09:41:40;;;;;;;;;56.40;39.80;;;;;3.68;69.85;102657.84;4969821;28;45662;-52
2022/01/11 09:44:07;;;;;;;;;41.75;34.50;;;;;3.50;69.73;102628.41;4906818;28;45777;-51
2022/01/11 09:46:33;;;;;;;;;52.20;40.80;;;;;3.70;70.54;102656.75;4952160;28;45436;-53
2022/01/11 09:48:59;;;;;;;;;50.80;38.20;;;;;3.74;69.86;102660.09;4969023;28;45549;-52
2022/01/11 09:51:25;;;;;;;;;43.00;35.50;;;;;3.59;69.63;102633.16;4968856;28;45413;-48
2022/01/11 09:53:51;;;;;;;;;41.50;34.25;;;;;3.66;69.88;102658.84;4970468;28;45441;-49
2022/01/11 09:56:17;;;;;;;;;45.40;35.20;;;;;3.61;69.51;102662.88;4953919;28;46258;-48
2022/01/11 09:58:44;;;;;;;;;46.50;36.50;;;;;3.56;70.07;102665.94;4969809;28;46258;-53
2022/01/11 10:01:09;;;;;;;;;41.80;34.00;;;;;3.67;70.31;102670.53;4970814;28;45506;-54
2022/01/11 10:03:56;;;;;;;;;42.25;37.25;;;;;3.50;69.84;102628.41;4950785;28;45634;-48
2022/01/11 10:06:22;;;;;;;;;43.00;34.80;;;;;3.78;70.22;102672.44;4971941;28;46190;-47
2022/01/11 10:08:48;;;;;;;;;56.80;41.00;;;;;3.77;69.65;102665.25;4973090;28;45356;-50
2022/01/11 10:11:14;;;;;;;;;50.75;41.00;;;;;3.81;70.14;102669.50;4941531;28;45942;-48
2022/01/11 10:13:40;;;;;;;;;57.25;44.00;;;;;3.62;70.57;102632.00;4975342;28;45395;-47
2022/01/11 10:16:25;;;;;;;;;52.80;41.20;;;;;3.88;70.18;102672.56;4967971;28;45858;-49
2022/01/11 10:18:51;;;;;;;;;51.20;42.00;;;;;3.91;70.01;102672.34;4974019;28;45518;-49
2022/01/11 10:21:50;;;;;;;;;48.80;41.20;;;;;3.89;69.29;102672.47;4976955;28;45811;-48
2022/01/11 10:24:32;;;;;;;;;47.75;39.50;;;;;3.28;69.51;102589.34;4937523;28;45728;-49
2022/01/11 10:27:00;;;;;;;;;40.80;37.20;;;;;3.83;69.20;102691.09;4977924;28;46122;-49
2022/01/11 10:29:33;;;;;;;;;50.60;39.00;;;;;3.64;69.50;102674.38;4992882;28;45403;-49
2022/01/11 10:32:00;;;;;;;;;45.20;39.80;;;;;3.60;70.13;102680.16;4976705;28;45412;-48
2022/01/11 10:34:35;;;;;;;;;46.00;39.50;;;;;3.60;70.36;102681.03;4993256;28;45677;-48
2022/01/11 10:37:02;;;;;;;;;59.25;42.00;;;;;3.68;70.39;102685.00;4977061;28;46564;-50
2022/01/11 10:39:35;;;;;;;;;38.00;38.00;;;;;3.28;69.72;102634.63;4978016;28;45352;-49
2022/01/11 10:42:02;;;;;;;;;51.80;42.00;;;;;3.65;70.55;102695.13;4977900;28;45311;-50
2022/01/11 10:44:47;;;;;;;;;12.50;2.50;;;;;3.43;69.76;102657.03;4978191;28;45372;-50
2022/01/11 10:47:26;;;;;;;;;40.40;34.60;;;;;3.69;70.54;102687.63;4933636;28;46480;-50
2022/01/11 10:49:57;;;;;;;;;44.40;37.00;;;;;3.58;70.32;102668.56;4960390;28;45510;-52
2022/01/11 10:52:24;;;;;;;;;50.00;40.20;;;;;3.78;70.19;102686.00;4956297;28;45847;-51
2022/01/11 10:54:50;;;;;;;;;49.25;41.50;;;;;3.47;69.73;102639.53;4974111;28;45528;-50
2022/01/11 10:57:31;;;;;;;;;54.50;39.00;;;;;3.84;69.47;102699.13;4954828;28;45846;-49
2022/01/11 11:00:06;;;;;;;;;46.60;40.80;;;;;3.90;69.15;102689.66;4973971;28;45518;-50
2022/01/11 11:02:31;;;;;;;;;51.60;40.40;;;;;3.85;69.33;102684.53;4974254;28;45458;-50
2022/01/11 11:05:00;;;;;;;;;39.75;35.25;;;;;3.83;68.98;102683.81;4973947;28;45425;-49
2022/01/11 11:07:27;;;;;;;;;56.25;44.50;;;;;3.80;69.50;102690.34;4972648;28;45628;-47
2022/01/11 11:09:53;;;;;;;;;45.60;40.00;;;;;3.87;69.60;102689.88;4993117;28;45405;-47
2022/01/11 11:12:22;;;;;;;;;52.50;41.50;;;;;3.89;69.33;102694.19;4975813;28;45486;-49
2022/01/11 11:14:55;;;;;;;;;53.50;42.00;;;;;3.61;69.05;102652.00;4945740;28;45349;-48
2022/01/11 11:17:33;;;;;;;;;47.20;35.00;;;;;3.68;69.64;102687.72;4990491;28;46619;-47